Time;durP1;ratioP1;P1;durP2;ratioP2;P2;SDS_P1;SDS_P2;PMS_P1;PMS_P2;Temp;Humidity;BMP_temperature;BMP_pressure;BME280_temperature;BME280_humidity;BME280_pressure;Samples;Min_cycle;Max_cycle;Signal;HPM_P1;HPM_P2
2023/06/30 00:01:37;;;;;;;13.38;4.85;;;13.10;99.90;;;;;;5074305;28;20026;-67
2023/06/30 00:04:02;;;;;;;7.72;4.40;;;13.10;99.90;;;;;;5065906;28;20460;-66
2023/06/30 00:06:29;;;;;;;10.85;4.00;;;13.10;99.90;;;;;;5055165;28;20039;-67
2023/06/30 00:08:55;;;;;;;10.35;4.30;;;13.00;99.90;;;;;;5055358;28;20373;-67
2023/06/30 00:11:23;;;;;;;10.02;4.28;;;13.00;99.90;;;;;;5057844;28;20094;-67
2023/06/30 00:13:52;;;;;;;8.00;3.60;;;12.90;99.90;;;;;;5079402;28;20388;-67
2023/06/30 00:16:19;;;;;;;11.32;4.03;;;12.90;99.90;;;;;;5055065;28;20063;-67
2023/06/30 00:18:45;;;;;;;11.63;3.88;;;12.90;99.90;;;;;;5055134;28;20460;-67
2023/06/30 00:21:11;;;;;;;7.07;3.20;;;12.90;99.90;;;;;;5055060;28;20117;-67
2023/06/30 00:23:37;;;;;;;11.07;3.38;;;12.80;99.90;;;;;;5057576;28;20051;-66
2023/06/30 00:26:02;;;;;;;12.10;3.78;;;12.80;99.90;;;;;;5066716;28;20030;-66
2023/06/30 00:28:28;;;;;;;10.95;4.28;;;12.70;99.90;;;;;;5054963;28;20488;-66
2023/06/30 00:30:53;;;;;;;11.48;4.10;;;12.70;99.90;;;;;;5054781;28;20032;-66
2023/06/30 00:33:19;;;;;;;10.25;3.80;;;12.70;99.90;;;;;;5054842;28;20106;-67
2023/06/30 00:35:44;;;;;;;9.13;4.30;;;12.70;99.90;;;;;;5054898;28;20106;-66
2023/06/30 00:38:10;;;;;;;14.57;4.47;;;12.60;99.90;;;;;;5054975;28;20037;-67
2023/06/30 00:40:35;;;;;;;12.57;4.50;;;12.60;99.90;;;;;;5054737;28;20025;-66
2023/06/30 00:43:01;;;;;;;10.20;4.00;;;12.60;99.90;;;;;;5054698;28;20133;-67
2023/06/30 00:45:27;;;;;;;8.70;3.80;;;12.60;99.90;;;;;;5054265;28;20033;-68
2023/06/30 00:47:52;;;;;;;9.75;3.97;;;12.60;99.90;;;;;;5054385;28;20029;-65
2023/06/30 00:50:19;;;;;;;10.68;4.22;;;12.50;99.90;;;;;;5054138;28;20021;-67
2023/06/30 00:52:47;;;;;;;10.30;4.15;;;12.50;99.90;;;;;;5054575;28;20037;-65
2023/06/30 00:55:14;;;;;;;12.60;5.07;;;12.50;99.90;;;;;;5054313;28;20431;-66
2023/06/30 00:57:40;;;;;;;10.63;3.80;;;12.40;99.90;;;;;;5063540;28;20028;-67
2023/06/30 01:00:10;;;;;;;10.48;4.45;;;12.50;99.90;;;;;;5073881;28;20384;-67
2023/06/30 01:02:43;;;;;;;13.88;4.95;;;12.40;99.90;;;;;;5074416;28;20078;-64
2023/06/30 01:05:16;;;;;;;15.10;4.50;;;12.40;99.90;;;;;;5074512;28;20059;-66
2023/06/30 01:07:55;;;;;;;7.20;3.65;;;12.40;99.90;;;;;;5074391;28;20025;-65
2023/06/30 01:10:23;;;;;;;9.13;3.55;;;12.40;99.90;;;;;;5074349;28;20024;-65
2023/06/30 01:12:49;;;;;;;7.78;3.22;;;12.40;99.90;;;;;;5069473;28;20111;-66
2023/06/30 01:15:15;;;;;;;9.95;4.18;;;12.40;99.90;;;;;;5062755;28;20048;-66
2023/06/30 01:17:46;;;;;;;9.35;3.20;;;12.40;99.90;;;;;;5054113;28;20457;-66
2023/06/30 01:20:13;;;;;;;14.32;3.40;;;12.30;99.90;;;;;;5054178;28;20025;-65
2023/06/30 01:22:44;;;;;;;9.57;3.65;;;12.30;99.90;;;;;;5056526;28;20174;-66
2023/06/30 01:25:18;;;;;;;7.68;3.10;;;12.30;99.90;;;;;;5071926;28;20031;-66
2023/06/30 01:27:44;;;;;;;6.60;3.25;;;12.30;99.90;;;;;;5056783;28;20025;-66
2023/06/30 01:30:11;;;;;;;8.35;3.00;;;12.30;99.90;;;;;;5054069;28;20047;-66
2023/06/30 01:32:37;;;;;;;7.88;3.13;;;12.30;99.90;;;;;;5053988;28;20067;-66
2023/06/30 01:35:03;;;;;;;8.02;3.10;;;12.30;99.90;;;;;;5053751;28;20385;-68
2023/06/30 01:37:29;;;;;;;10.82;2.80;;;12.30;99.90;;;;;;5053626;28;20040;-66
2023/06/30 01:39:55;;;;;;;6.50;2.80;;;12.30;99.90;;;;;;5053385;28;20029;-66
2023/06/30 01:42:22;;;;;;;6.72;2.60;;;12.40;99.90;;;;;;5069771;28;20052;-66
2023/06/30 01:44:48;;;;;;;6.63;2.30;;;12.40;99.90;;;;;;5073358;28;20112;-66
2023/06/30 01:47:14;;;;;;;9.38;3.33;;;12.40;99.90;;;;;;5073722;28;20082;-66
2023/06/30 01:49:43;;;;;;;9.35;2.85;;;12.40;99.90;;;;;;5073435;28;20033;-65
2023/06/30 01:52:09;;;;;;;8.68;2.55;;;12.40;99.90;;;;;;5073340;28;20031;-65
2023/06/30 01:54:34;;;;;;;10.18;2.60;;;12.50;99.90;;;;;;5073393;28;20032;-66
2023/06/30 01:57:00;;;;;;;6.07;3.13;;;12.50;99.90;;;;;;5072530;28;20078;-66
2023/06/30 01:59:25;;;;;;;13.63;3.17;;;12.50;99.90;;;;;;5073348;28;20021;-67
2023/06/30 02:01:51;;;;;;;10.48;3.13;;;12.60;99.90;;;;;;5073122;28;20104;-66
2023/06/30 02:04:17;;;;;;;7.95;2.70;;;12.60;99.90;;;;;;5072715;28;20115;-66
2023/06/30 02:06:43;;;;;;;10.77;3.00;;;12.60;99.90;;;;;;5072868;28;20027;-66
2023/06/30 02:09:08;;;;;;;12.13;3.17;;;12.60;99.90;;;;;;5072723;28;20035;-67
2023/06/30 02:11:34;;;;;;;13.82;3.20;;;12.60;99.90;;;;;;5073253;28;20032;-67
2023/06/30 02:14:01;;;;;;;9.07;3.33;;;12.60;99.90;;;;;;5073046;28;20032;-66
2023/06/30 02:16:27;;;;;;;11.57;3.08;;;12.70;99.90;;;;;;5072947;28;20445;-66
2023/06/30 02:18:54;;;;;;;13.07;3.70;;;12.70;99.90;;;;;;5073022;28;20089;-66
2023/06/30 02:21:21;;;;;;;13.82;3.58;;;12.70;99.90;;;;;;5072990;28;20020;-66
2023/06/30 02:23:48;;;;;;;10.75;3.53;;;12.70;99.90;;;;;;5072737;28;20056;-66
2023/06/30 02:26:14;;;;;;;14.13;3.40;;;12.80;99.90;;;;;;5072674;28;20480;-67
2023/06/30 02:28:39;;;;;;;9.43;3.25;;;12.80;99.90;;;;;;5072484;28;20035;-65
2023/06/30 02:31:05;;;;;;;8.90;2.80;;;12.80;99.90;;;;;;5073327;28;20052;-67
2023/06/30 02:33:31;;;;;;;10.63;3.25;;;12.90;99.90;;;;;;5072741;28;20020;-67
2023/06/30 02:35:56;;;;;;;12.07;2.97;;;12.90;99.90;;;;;;5072919;28;20035;-66
2023/06/30 02:38:22;;;;;;;13.38;3.45;;;12.90;99.90;;;;;;5072651;28;20086;-66
2023/06/30 02:40:48;;;;;;;9.65;3.00;;;12.90;99.90;;;;;;5072594;28;20410;-67
2023/06/30 02:43:13;;;;;;;11.07;3.03;;;13.00;99.90;;;;;;5070924;28;20042;-66
2023/06/30 02:45:39;;;;;;;15.68;3.50;;;13.00;99.90;;;;;;5072440;28;20062;-67
2023/06/30 02:48:05;;;;;;;10.07;3.40;;;13.00;99.90;;;;;;5072432;28;20025;-66
2023/06/30 02:50:31;;;;;;;14.07;3.00;;;13.00;99.90;;;;;;5072615;28;20560;-67
2023/06/30 02:52:58;;;;;;;9.38;3.05;;;13.00;99.90;;;;;;5072749;28;20060;-66
2023/06/30 02:55:24;;;;;;;10.20;2.75;;;13.00;99.90;;;;;;5072638;28;20449;-66
2023/06/30 02:57:50;;;;;;;8.10;2.65;;;13.00;99.90;;;;;;5072505;28;20135;-66
2023/06/30 03:00:15;;;;;;;8.90;3.03;;;13.00;99.90;;;;;;5072451;28;20040;-67
2023/06/30 03:02:41;;;;;;;12.90;3.33;;;13.00;99.90;;;;;;5072175;28;20085;-67
2023/06/30 03:05:08;;;;;;;8.30;2.47;;;13.00;99.90;;;;;;5071852;28;20044;-66
2023/06/30 03:07:33;;;;;;;17.02;3.45;;;13.00;99.90;;;;;;5071914;28;20083;-67
2023/06/30 03:09:59;;;;;;;10.27;2.90;;;13.00;99.90;;;;;;5072663;28;20409;-66
2023/06/30 03:12:25;;;;;;;14.38;3.72;;;13.00;99.90;;;;;;5071914;28;20394;-66
2023/06/30 03:14:50;;;;;;;10.20;3.47;;;13.00;99.90;;;;;;5072029;28;20476;-66
2023/06/30 03:17:16;;;;;;;12.90;3.10;;;13.10;99.90;;;;;;5072106;28;20364;-66
2023/06/30 03:19:41;;;;;;;10.52;3.42;;;13.00;99.90;;;;;;5070898;28;20100;-66
2023/06/30 03:22:07;;;;;;;8.32;3.08;;;13.00;99.90;;;;;;5072135;28;20119;-66
2023/06/30 03:24:32;;;;;;;11.07;3.00;;;13.00;99.90;;;;;;5072394;28;20024;-66
2023/06/30 03:26:58;;;;;;;12.02;3.13;;;13.10;99.90;;;;;;5072416;28;20029;-65
2023/06/30 03:29:23;;;;;;;10.02;3.08;;;13.10;99.90;;;;;;5072065;28;20029;-65
2023/06/30 03:31:50;;;;;;;12.95;3.20;;;13.10;99.90;;;;;;5071437;28;20025;-66
2023/06/30 03:34:15;;;;;;;10.40;3.10;;;13.10;99.90;;;;;;5071265;28;20076;-66
2023/06/30 03:36:41;;;;;;;8.23;3.40;;;13.10;99.90;;;;;;5071889;28;20071;-66
2023/06/30 03:39:07;;;;;;;11.38;3.55;;;13.10;99.90;;;;;;5071461;28;20055;-66
2023/06/30 03:41:32;;;;;;;8.55;2.58;;;13.10;99.90;;;;;;5071468;28;20034;-66
2023/06/30 03:43:58;;;;;;;11.50;3.30;;;13.10;99.90;;;;;;5071521;28;20036;-65
2023/06/30 03:46:23;;;;;;;8.23;3.25;;;13.10;99.90;;;;;;5071751;28;20020;-66
2023/06/30 03:48:49;;;;;;;11.40;3.75;;;13.20;99.90;;;;;;5071945;28;20021;-66
2023/06/30 03:51:14;;;;;;;7.55;2.80;;;13.10;99.90;;;;;;5071640;28;20102;-66
2023/06/30 03:53:43;;;;;;;8.00;2.65;;;13.10;99.90;;;;;;5071491;28;20100;-66
2023/06/30 03:56:09;;;;;;;9.00;3.20;;;13.10;99.90;;;;;;5071909;28;20098;-66
2023/06/30 03:58:35;;;;;;;9.07;3.20;;;13.20;99.90;;;;;;5071697;28;20111;-66
2023/06/30 04:01:00;;;;;;;9.18;2.80;;;13.20;99.90;;;;;;5070128;28;20453;-66
2023/06/30 04:03:26;;;;;;;10.93;3.00;;;13.30;99.90;;;;;;5071645;28;20076;-66
2023/06/30 04:05:52;;;;;;;8.50;3.13;;;13.30;99.90;;;;;;5070386;28;20427;-65
2023/06/30 04:08:18;;;;;;;7.25;3.33;;;13.30;99.90;;;;;;5071632;28;20069;-65
2023/06/30 04:10:44;;;;;;;11.52;3.45;;;13.40;99.90;;;;;;5071776;28;20024;-67
2023/06/30 04:13:09;;;;;;;6.88;3.08;;;13.40;99.90;;;;;;5071598;28;20091;-66
2023/06/30 04:15:35;;;;;;;10.20;2.90;;;13.40;99.90;;;;;;5071382;28;20372;-66
2023/06/30 04:18:01;;;;;;;15.07;3.53;;;13.50;99.90;;;;;;5071662;28;20024;-66
2023/06/30 04:20:27;;;;;;;9.82;3.67;;;13.60;99.90;;;;;;5071496;28;20028;-68
2023/06/30 04:22:52;;;;;;;6.78;2.95;;;13.70;99.90;;;;;;5071768;28;20051;-66
2023/06/30 04:25:18;;;;;;;7.68;3.25;;;13.70;99.90;;;;;;5071672;28;20028;-67
2023/06/30 04:27:44;;;;;;;10.93;3.15;;;13.80;99.90;;;;;;5071965;28;20029;-66
2023/06/30 04:30:10;;;;;;;15.32;3.50;;;13.90;99.90;;;;;;5071666;28;20104;-66
2023/06/30 04:32:35;;;;;;;8.75;3.03;;;14.00;99.90;;;;;;5075222;28;20051;-66
2023/06/30 04:35:01;;;;;;;11.75;2.95;;;14.10;99.90;;;;;;5074850;28;20052;-66
2023/06/30 04:37:28;;;;;;;5.82;2.67;;;14.30;99.90;;;;;;5075267;28;20119;-66
2023/06/30 04:39:55;;;;;;;9.30;2.53;;;14.40;99.90;;;;;;5074970;28;20078;-66
2023/06/30 04:42:21;;;;;;;9.02;2.97;;;14.50;99.90;;;;;;5074883;28;20036;-66
2023/06/30 04:44:46;;;;;;;10.32;2.90;;;14.50;99.90;;;;;;5074881;28;20043;-65
2023/06/30 04:47:12;;;;;;;10.63;3.13;;;14.60;99.90;;;;;;5074927;28;20071;-67
2023/06/30 04:49:38;;;;;;;10.45;2.88;;;14.70;99.90;;;;;;5074846;28;20530;-65
2023/06/30 04:52:04;;;;;;;10.13;2.92;;;14.80;99.90;;;;;;5074906;28;20031;-65
2023/06/30 04:54:30;;;;;;;7.72;2.78;;;14.90;99.90;;;;;;5074844;28;20371;-66
2023/06/30 04:56:56;;;;;;;6.55;2.72;;;15.00;99.90;;;;;;5074373;28;20396;-67
2023/06/30 04:59:22;;;;;;;6.95;2.40;;;15.20;99.90;;;;;;5074710;28;20044;-67
2023/06/30 05:01:47;;;;;;;10.50;3.80;;;15.30;99.90;;;;;;5073898;28;20032;-66
2023/06/30 05:04:13;;;;;;;5.05;2.78;;;15.50;99.90;;;;;;5074487;28;20032;-66
2023/06/30 05:06:39;;;;;;;8.25;2.85;;;15.60;99.90;;;;;;5074441;28;20021;-67
2023/06/30 05:09:05;;;;;;;6.57;2.35;;;15.80;99.90;;;;;;5074241;28;20369;-67
2023/06/30 05:11:30;;;;;;;9.57;2.30;;;16.00;99.90;;;;;;5074437;28;20033;-67
2023/06/30 05:13:56;;;;;;;9.45;2.35;;;16.10;99.90;;;;;;5074656;28;20158;-67
2023/06/30 05:16:22;;;;;;;10.13;2.38;;;16.20;99.90;;;;;;5074093;28;20646;-66
2023/06/30 05:18:47;;;;;;;8.23;2.13;;;16.40;99.90;;;;;;5074327;28;20032;-66
2023/06/30 05:21:13;;;;;;;8.65;2.42;;;16.60;99.90;;;;;;5074245;28;20029;-68
2023/06/30 05:23:38;;;;;;;5.18;2.78;;;16.70;99.90;;;;;;5074124;28;20071;-67
2023/06/30 05:26:05;;;;;;;8.80;2.20;;;16.90;99.90;;;;;;5074038;28;20056;-66
2023/06/30 05:28:30;;;;;;;4.75;2.10;;;17.20;99.90;;;;;;5074156;28;20059;-66
2023/06/30 05:30:56;;;;;;;5.90;1.83;;;17.60;99.90;;;;;;5074017;28;20056;-67
2023/06/30 05:33:21;;;;;;;6.38;1.70;;;18.10;99.90;;;;;;5073718;28;20055;-67
2023/06/30 05:35:47;;;;;;;5.45;2.00;;;18.70;99.90;;;;;;5074104;28;20112;-67
2023/06/30 05:38:13;;;;;;;9.15;2.60;;;19.10;99.90;;;;;;5073861;28;20028;-67
2023/06/30 05:40:38;;;;;;;8.88;1.95;;;19.50;99.90;;;;;;5074156;28;20033;-66
2023/06/30 05:43:04;;;;;;;6.82;1.80;;;20.10;99.90;;;;;;5073072;28;20089;-66
2023/06/30 05:45:29;;;;;;;6.85;2.22;;;20.60;99.90;;;;;;5073833;28;20102;-66
2023/06/30 05:47:56;;;;;;;6.03;1.85;;;21.20;99.90;;;;;;5073608;28;20032;-65
2023/06/30 05:50:23;;;;;;;4.75;1.50;;;21.90;99.90;;;;;;5073740;28;20032;-67
2023/06/30 05:52:49;;;;;;;9.15;1.60;;;22.60;99.90;;;;;;5073645;28;20044;-67
2023/06/30 05:55:14;;;;;;;4.80;1.70;;;23.20;99.90;;;;;;5073523;28;20028;-67
2023/06/30 05:57:40;;;;;;;7.20;1.67;;;24.00;99.90;;;;;;5073327;28;20089;-66
2023/06/30 06:00:07;;;;;;;7.13;1.50;;;24.70;99.90;;;;;;5073307;28;20032;-67
2023/06/30 06:02:33;;;;;;;6.80;1.45;;;25.40;99.40;;;;;;5072963;28;20048;-67
2023/06/30 06:04:59;;;;;;;5.78;1.48;;;25.90;97.10;;;;;;5073379;28;20025;-66
2023/06/30 06:07:24;;;;;;;6.57;1.70;;;26.20;96.40;;;;;;5073481;28;20051;-66
2023/06/30 06:09:50;;;;;;;6.13;1.60;;;26.60;95.80;;;;;;5073587;28;20059;-67
2023/06/30 06:12:15;;;;;;;6.18;1.58;;;27.00;94.90;;;;;;5073369;28;20113;-66
2023/06/30 06:14:41;;;;;;;6.07;1.52;;;27.40;94.90;;;;;;5072783;28;20032;-66
2023/06/30 06:17:07;;;;;;;3.67;1.33;;;27.70;93.60;;;;;;5072906;28;20029;-66
2023/06/30 06:19:33;;;;;;;6.25;1.58;;;27.90;92.80;;;;;;5073224;28;20024;-67
2023/06/30 06:21:58;;;;;;;5.47;1.20;;;28.10;93.00;;;;;;5072972;28;20082;-66
2023/06/30 06:24:24;;;;;;;5.72;1.17;;;28.50;92.00;;;;;;5072707;28;20126;-67
2023/06/30 06:26:49;;;;;;;5.63;1.50;;;28.80;92.10;;;;;;5072489;28;20082;-67
2023/06/30 06:29:21;;;;;;;5.18;1.17;;;29.10;91.60;;;;;;5072402;28;20020;-67
2023/06/30 06:31:48;;;;;;;;;;;29.60;90.70;;;;;;5073563;28;20020;-66
2023/06/30 06:34:14;;;;;;;4.75;1.60;;;29.80;90.10;;;;;;5072885;28;19920;-66
2023/06/30 06:36:40;;;;;;;4.30;1.50;;;29.90;89.60;;;;;;5066255;28;20039;-66
2023/06/30 06:39:05;;;;;;;3.20;1.60;;;29.90;89.10;;;;;;5063534;28;20475;-66
2023/06/30 06:41:32;;;;;;;6.32;1.35;;;30.00;88.90;;;;;;5057364;28;20457;-66
2023/06/30 06:43:57;;;;;;;4.85;1.77;;;30.30;88.30;;;;;;5061464;28;20048;-67
2023/06/30 06:46:23;;;;;;;4.78;1.30;;;30.40;87.40;;;;;;5058006;28;20029;-67
2023/06/30 06:48:48;;;;;;;6.75;1.77;;;30.40;86.70;;;;;;5062040;28;20029;-67
2023/06/30 06:51:14;;;;;;;9.10;1.35;;;30.50;85.60;;;;;;5059251;28;20397;-67
2023/06/30 06:53:40;;;;;;;6.70;1.45;;;30.60;85.00;;;;;;5058984;28;20037;-67
2023/06/30 06:56:05;;;;;;;6.57;1.38;;;30.50;84.60;;;;;;5063270;28;20044;-67
2023/06/30 06:58:33;;;;;;;3.70;1.08;;;30.60;83.80;;;;;;5060212;28;20029;-67
2023/06/30 07:00:58;;;;;;;3.67;1.00;;;30.70;81.50;;;;;;5065591;28;20120;-66
2023/06/30 07:03:24;;;;;;;4.90;1.50;;;30.80;81.90;;;;;;5072521;28;20536;-66
2023/06/30 07:05:50;;;;;;;3.17;1.50;;;31.20;81.70;;;;;;5072478;28;20024;-66
2023/06/30 07:08:18;;;;;;;2.38;1.13;;;31.50;81.40;;;;;;5072571;28;20028;-67
2023/06/30 07:10:44;;;;;;;7.03;1.50;;;31.60;80.90;;;;;;5072519;28;20036;-66
2023/06/30 07:13:10;;;;;;;5.35;1.58;;;31.80;81.00;;;;;;5070040;28;20071;-66
2023/06/30 07:15:36;;;;;;;3.47;1.70;;;31.90;79.70;;;;;;5061982;28;20028;-67
2023/06/30 07:18:02;;;;;;;5.32;1.48;;;31.80;79.40;;;;;;5060817;28;20496;-67
2023/06/30 07:20:28;;;;;;;2.83;1.30;;;31.60;79.60;;;;;;5054678;28;20028;-67
2023/06/30 07:22:55;;;;;;;5.10;1.40;;;31.10;79.30;;;;;;5060928;28;20091;-66
2023/06/30 07:25:21;;;;;;;4.05;1.65;;;30.50;80.30;;;;;;5052146;28;20037;-67
2023/06/30 07:27:52;;;;;;;2.35;1.15;;;30.60;80.80;;;;;;5051612;28;20029;-68
2023/06/30 07:30:20;;;;;;;2.45;0.95;;;30.50;79.30;;;;;;5052219;28;20029;-66
2023/06/30 07:32:45;;;;;;;4.43;1.60;;;30.20;79.80;;;;;;5052185;28;20042;-67
2023/06/30 07:35:11;;;;;;;5.05;1.52;;;29.80;80.90;;;;;;5051971;28;20049;-67
2023/06/30 07:37:37;;;;;;;3.85;1.52;;;29.50;81.00;;;;;;5052006;28;20025;-67
2023/06/30 07:40:02;;;;;;;7.32;2.00;;;29.10;81.60;;;;;;5052144;28;20032;-67
2023/06/30 07:42:28;;;;;;;8.77;1.73;;;28.50;82.40;;;;;;5051873;28;20135;-66
2023/06/30 07:44:53;;;;;;;4.88;1.73;;;27.90;83.50;;;;;;5065994;28;20021;-67
2023/06/30 07:47:19;;;;;;;5.28;1.45;;;27.40;85.10;;;;;;5072096;28;20051;-67
2023/06/30 07:49:45;;;;;;;4.35;1.30;;;26.80;86.00;;;;;;5071544;28;20039;-66
2023/06/30 07:52:10;;;;;;;5.53;1.80;;;26.50;86.20;;;;;;5071936;28;20029;-67
2023/06/30 07:54:36;;;;;;;2.40;1.30;;;26.30;87.40;;;;;;5071837;28;20043;-66
2023/06/30 07:57:02;;;;;;;3.97;1.30;;;26.50;86.80;;;;;;5071592;28;20384;-66
2023/06/30 07:59:27;;;;;;;2.13;1.42;;;27.20;86.60;;;;;;5071794;28;20078;-67
2023/06/30 08:01:53;;;;;;;5.28;1.50;;;27.50;84.10;;;;;;5070605;28;20476;-67
2023/06/30 08:04:19;;;;;;;5.45;1.35;;;27.30;86.10;;;;;;5071768;28;20040;-66
2023/06/30 08:06:45;;;;;;;6.45;1.70;;;27.30;86.80;;;;;;5074275;28;20032;-67
2023/06/30 08:09:10;;;;;;;4.18;1.40;;;27.40;87.10;;;;;;5075533;28;20025;-68
2023/06/30 08:11:36;;;;;;;6.00;1.27;;;27.50;86.00;;;;;;5075884;28;20029;-66
2023/06/30 08:14:04;;;;;;;4.30;1.75;;;27.30;86.40;;;;;;5075151;28;20024;-67
2023/06/30 08:16:30;;;;;;;1.50;1.00;;;27.20;87.50;;;;;;5079059;28;20112;-67
2023/06/30 08:18:55;;;;;;;6.18;1.77;;;27.30;86.20;;;;;;5088258;28;20039;-67
2023/06/30 08:21:21;;;;;;;6.30;1.42;;;27.20;87.40;;;;;;5069048;28;20024;-66
2023/06/30 08:23:47;;;;;;;2.30;1.25;;;26.90;87.80;;;;;;5079366;28;20043;-68
2023/06/30 08:26:13;;;;;;;5.70;1.60;;;27.10;87.00;;;;;;5095447;28;20024;-66
2023/06/30 08:28:38;;;;;;;2.78;1.30;;;27.60;85.00;;;;;;5095080;28;20042;-66
2023/06/30 08:31:04;;;;;;;3.03;1.20;;;28.10;85.10;;;;;;5093584;28;20035;-67
2023/06/30 08:33:30;;;;;;;5.35;1.50;;;28.40;83.70;;;;;;5074936;28;20021;-66
2023/06/30 08:35:55;;;;;;;6.07;1.60;;;28.50;83.90;;;;;;5071643;28;20024;-67
2023/06/30 08:38:21;;;;;;;5.32;1.30;;;29.00;83.40;;;;;;5074091;28;20024;-68
2023/06/30 08:40:47;;;;;;;6.45;1.85;;;29.50;82.70;;;;;;5074748;28;20029;-67
2023/06/30 08:43:13;;;;;;;4.72;1.58;;;29.80;81.90;;;;;;5074746;28;20040;-66
2023/06/30 08:45:48;;;;;;;4.10;1.23;;;30.20;81.50;;;;;;5074651;28;20090;-67
2023/06/30 08:48:18;;;;;;;2.63;1.02;;;30.70;80.80;;;;;;5077164;28;20111;-67
2023/06/30 08:50:44;;;;;;;3.95;1.33;;;31.50;79.70;;;;;;5094838;28;20024;-67
2023/06/30 08:53:10;;;;;;;3.42;1.30;;;31.80;78.80;;;;;;5094716;28;20055;-67
2023/06/30 08:55:36;;;;;;;4.13;1.40;;;32.10;78.60;;;;;;5094829;28;20028;-66
2023/06/30 08:58:02;;;;;;;3.30;1.30;;;32.50;77.50;;;;;;5095298;28;20035;-66
2023/06/30 09:00:27;;;;;;;4.43;1.33;;;32.70;76.80;;;;;;5094952;28;20032;-67
2023/06/30 09:02:55;;;;;;;3.92;1.13;;;33.00;75.50;;;;;;5094322;28;20039;-67
2023/06/30 09:05:22;;;;;;;4.93;1.60;;;32.80;75.90;;;;;;5094554;28;20028;-67
2023/06/30 09:07:54;;;;;;;4.55;1.38;;;32.50;77.00;;;;;;5093675;28;20092;-67
2023/06/30 09:10:22;;;;;;;4.30;1.40;;;32.50;76.30;;;;;;5094654;28;20173;-67
2023/06/30 09:12:50;;;;;;;5.88;1.40;;;32.20;76.40;;;;;;5094320;28;20040;-68
2023/06/30 09:15:18;;;;;;;5.25;1.20;;;31.40;76.70;;;;;;5094441;28;20044;-67
2023/06/30 09:17:44;;;;;;;2.88;1.58;;;30.40;77.70;;;;;;5094361;28;20109;-67
2023/06/30 09:20:13;;;;;;;6.32;1.95;;;29.60;79.20;;;;;;5094282;28;20082;-68
2023/06/30 09:22:42;;;;;;;3.85;1.23;;;29.00;80.60;;;;;;5089186;28;20135;-67
2023/06/30 09:25:28;;;;;;;5.18;1.60;;;29.40;80.80;;;;;;5074369;28;20040;-66
2023/06/30 09:27:55;;;;;;;3.75;1.50;;;30.30;79.30;;;;;;5073701;28;20060;-66
2023/06/30 09:30:37;;;;;;;2.42;1.25;;;30.50;78.00;;;;;;5073906;28;20033;-67
2023/06/30 09:33:03;;;;;;;4.57;1.30;;;29.90;78.80;;;;;;5073766;28;20063;-67
2023/06/30 09:35:39;;;;;;;4.90;1.30;;;29.40;80.20;;;;;;5073845;28;20504;-67
2023/06/30 09:38:15;;;;;;;4.95;1.60;;;28.90;80.50;;;;;;5073454;28;20036;-67
2023/06/30 09:40:46;;;;;;;4.22;1.60;;;28.60;81.10;;;;;;5073958;28;20608;-66
2023/06/30 09:43:19;;;;;;;3.60;1.52;;;28.40;82.00;;;;;;5092952;28;20506;-67
2023/06/30 09:45:47;;;;;;;5.38;1.63;;;28.50;82.20;;;;;;5094216;28;20034;-68
2023/06/30 09:48:13;;;;;;;3.80;1.33;;;28.90;82.10;;;;;;5093852;28;20028;-67
2023/06/30 09:50:41;;;;;;;5.28;1.67;;;29.50;81.30;;;;;;5093949;28;20028;-68
2023/06/30 09:53:07;;;;;;;3.08;1.50;;;30.30;80.00;;;;;;5093500;28;20437;-67
2023/06/30 09:55:48;;;;;;;2.00;1.17;;;31.20;78.20;;;;;;5093749;28;20551;-67
2023/06/30 09:58:16;;;;;;;3.63;1.20;;;31.80;77.00;;;;;;5092854;28;20028;-67
2023/06/30 10:00:41;;;;;;;6.72;1.90;;;32.40;77.10;;;;;;5093897;28;20161;-67
2023/06/30 10:03:08;;;;;;;3.20;0.93;;;33.20;76.10;;;;;;5093454;28;20483;-68
2023/06/30 10:05:35;;;;;;;5.40;1.30;;;33.60;75.10;;;;;;5093507;28;20028;-67
2023/06/30 10:08:02;;;;;;;4.97;1.60;;;33.60;75.90;;;;;;5091618;28;20036;-68
2023/06/30 10:10:31;;;;;;;5.07;1.42;;;33.80;75.60;;;;;;5093303;28;20111;-67
2023/06/30 10:12:58;;;;;;;3.75;1.70;;;33.90;75.00;;;;;;5093281;28;20039;-67
2023/06/30 10:15:25;;;;;;;4.03;1.60;;;34.20;75.00;;;;;;5093498;28;20028;-68
2023/06/30 10:17:51;;;;;;;4.60;1.48;;;34.00;75.20;;;;;;5093557;28;20028;-68
2023/06/30 10:20:18;;;;;;;6.45;1.60;;;34.30;74.50;;;;;;5093027;28;20028;-67
2023/06/30 10:22:45;;;;;;;6.47;1.80;;;34.30;74.50;;;;;;5087372;28;20095;-67
2023/06/30 10:25:11;;;;;;;3.85;1.10;;;33.80;75.20;;;;;;5072885;28;20116;-68
2023/06/30 10:27:38;;;;;;;4.38;1.42;;;33.70;74.60;;;;;;5072790;28;20147;-68
2023/06/30 10:30:04;;;;;;;1.90;1.40;;;33.20;74.40;;;;;;5072406;28;20031;-68
2023/06/30 10:32:30;;;;;;;4.40;1.50;;;32.30;75.70;;;;;;5073028;28;20024;-67
2023/06/30 10:34:57;;;;;;;4.03;1.48;;;31.60;77.10;;;;;;5070941;28;20055;-67
2023/06/30 10:37:24;;;;;;;6.00;2.20;;;31.30;77.60;;;;;;5072235;28;20040;-67
2023/06/30 10:39:50;;;;;;;5.28;1.48;;;31.50;77.70;;;;;;5072978;28;20107;-68
2023/06/30 10:42:16;;;;;;;3.55;1.25;;;32.30;76.20;;;;;;5071438;28;20071;-68
2023/06/30 10:44:46;;;;;;;2.78;1.60;;;33.40;76.40;;;;;;5072704;28;20039;-68
2023/06/30 10:47:13;;;;;;;6.20;1.60;;;34.40;75.10;;;;;;5072512;28;20028;-68
2023/06/30 10:49:40;;;;;;;4.07;1.95;;;35.10;73.70;;;;;;5072638;28;20102;-68
2023/06/30 10:52:08;;;;;;;5.05;1.58;;;35.30;72.80;;;;;;5071864;28;20468;-68
2023/06/30 10:54:41;;;;;;;2.67;1.38;;;35.30;73.00;;;;;;5072399;28;20032;-68
2023/06/30 10:57:15;;;;;;;5.50;1.80;;;34.60;74.30;;;;;;5072407;28;20465;-69
2023/06/30 10:59:47;;;;;;;3.67;1.35;;;34.50;74.70;;;;;;5072471;28;20033;-68
2023/06/30 11:02:18;;;;;;;2.88;1.38;;;34.20;73.90;;;;;;5071810;28;20025;-68
2023/06/30 11:04:45;;;;;;;3.28;1.60;;;34.10;74.10;;;;;;5071715;28;20086;-68
2023/06/30 11:07:16;;;;;;;2.60;1.63;;;34.20;73.60;;;;;;5071982;28;20028;-67
2023/06/30 11:09:48;;;;;;;3.47;1.67;;;34.60;72.70;;;;;;5072351;28;20021;-67
2023/06/30 11:12:50;;;;;;;5.07;1.80;;;34.80;73.30;;;;;;5072275;28;20036;-67
2023/06/30 11:15:27;;;;;;;3.97;1.80;;;34.80;71.90;;;;;;5069894;28;20468;-69
2023/06/30 11:17:52;;;;;;;10.98;1.98;;;34.90;72.10;;;;;;5072344;28;20040;-68
2023/06/30 11:20:18;;;;;;;5.32;2.42;;;35.30;71.10;;;;;;5071660;28;20240;-68
2023/06/30 11:22:58;;;;;;;4.47;1.73;;;35.70;70.70;;;;;;5072170;28;20036;-68
2023/06/30 11:25:24;;;;;;;5.18;2.13;;;35.50;70.60;;;;;;5071844;28;20101;-68
2023/06/30 11:27:50;;;;;;;4.70;1.52;;;35.30;70.40;;;;;;5072528;28;20465;-68
2023/06/30 11:30:18;;;;;;;3.97;1.77;;;35.40;70.50;;;;;;5071956;28;20078;-67
2023/06/30 11:32:45;;;;;;;10.52;2.38;;;35.50;69.50;;;;;;5072148;28;20119;-68
2023/06/30 11:35:12;;;;;;;6.65;1.58;;;35.70;69.00;;;;;;5071814;28;20059;-67
2023/06/30 11:37:38;;;;;;;3.58;1.80;;;35.50;69.70;;;;;;5071756;28;20033;-69
2023/06/30 11:40:07;;;;;;;3.75;1.58;;;35.20;70.00;;;;;;5072245;28;20036;-68
2023/06/30 11:42:36;;;;;;;5.82;1.73;;;34.80;69.90;;;;;;5076203;28;20456;-68
2023/06/30 11:45:02;;;;;;;6.93;2.20;;;34.50;70.50;;;;;;5076202;28;20456;-68
2023/06/30 11:47:28;;;;;;;3.25;1.40;;;34.80;70.00;;;;;;5075791;28;20033;-68
2023/06/30 11:49:53;;;;;;;3.80;1.58;;;35.10;69.00;;;;;;5076089;28;20041;-68
2023/06/30 11:52:19;;;;;;;5.93;1.75;;;35.30;69.20;;;;;;5075601;28;20040;-68
2023/06/30 11:54:45;;;;;;;3.03;1.63;;;35.40;69.10;;;;;;5075812;28;20082;-69
2023/06/30 11:57:11;;;;;;;4.43;1.63;;;35.00;68.30;;;;;;5075887;28;20028;-69
2023/06/30 11:59:37;;;;;;;6.05;1.60;;;34.70;68.90;;;;;;5075432;28;20020;-68
2023/06/30 12:02:03;;;;;;;7.20;1.92;;;34.50;69.70;;;;;;5075685;28;20029;-68
2023/06/30 12:04:34;;;;;;;3.50;1.42;;;34.60;69.20;;;;;;5075784;28;20118;-68
2023/06/30 12:07:03;;;;;;;2.87;1.40;;;34.30;69.20;;;;;;5075484;28;20111;-68
2023/06/30 12:09:29;;;;;;;4.75;1.60;;;34.00;69.40;;;;;;5075763;28;20066;-68
2023/06/30 12:11:56;;;;;;;4.72;1.98;;;34.00;69.10;;;;;;5075668;28;20030;-68
2023/06/30 12:14:25;;;;;;;3.13;1.60;;;34.10;69.20;;;;;;5075428;28;20035;-68
2023/06/30 12:16:51;;;;;;;2.83;1.63;;;34.50;69.70;;;;;;5075514;28;20063;-68
2023/06/30 12:19:22;;;;;;;5.75;1.50;;;34.20;69.40;;;;;;5075559;28;20063;-68
2023/06/30 12:21:51;;;;;;;8.97;2.17;;;33.70;69.90;;;;;;5074273;28;20452;-68
2023/06/30 12:24:18;;;;;;;7.07;2.05;;;33.40;70.90;;;;;;5075213;28;20289;-68
2023/06/30 12:26:44;;;;;;;8.07;2.35;;;33.40;71.10;;;;;;5075432;28;20043;-68
2023/06/30 12:29:10;;;;;;;7.75;2.60;;;33.50;71.50;;;;;;5074023;28;20024;-69
2023/06/30 12:31:35;;;;;;;3.97;2.20;;;32.90;70.40;;;;;;5075073;28;20460;-68
2023/06/30 12:34:02;;;;;;;6.28;2.45;;;32.60;71.10;;;;;;5074931;28;20488;-68
2023/06/30 12:36:28;;;;;;;8.32;2.90;;;32.50;71.90;;;;;;5075305;28;20477;-68
2023/06/30 12:38:54;;;;;;;3.97;2.10;;;32.70;72.00;;;;;;5075186;28;20682;-68
2023/06/30 12:41:20;;;;;;;8.75;2.67;;;32.80;71.60;;;;;;5075084;28;20039;-68
2023/06/30 12:43:46;;;;;;;12.32;3.15;;;32.80;71.10;;;;;;5074610;28;20044;-69